Time;durP1;ratioP1;P1;durP2;ratioP2;P2;SDS_P1;SDS_P2;PMS_P1;PMS_P2;Temp;Humidity;BMP_temperature;BMP_pressure;BME280_temperature;BME280_humidity;BME280_pressure;Samples;Min_cycle;Max_cycle;Signal;HPM_P1;HPM_P2
2022/01/18 00:01:26;;;;;;;16.83;4.13;;;0.70;99.90;;;1.21;100.00;-19768.03;5110800;28;20310;-62
2022/01/18 00:03:55;;;;;;;13.90;4.30;;;0.70;99.90;;;1.19;100.00;-19767.50;5110619;28;20259;-63
2022/01/18 00:06:24;;;;;;;17.33;3.97;;;0.70;99.90;;;1.17;100.00;-19766.66;5110522;28;20250;-62
2022/01/18 00:08:52;;;;;;;19.93;4.43;;;0.60;99.90;;;1.23;100.00;-19768.72;5110826;28;20254;-63
2022/01/18 00:11:23;;;;;;;20.63;4.57;;;0.70;99.90;;;1.22;100.00;-19768.38;5110612;28;20203;-62
2022/01/18 00:14:00;;;;;;;19.87;4.47;;;0.60;99.90;;;1.18;100.00;-19767.16;5110292;28;20267;-62
2022/01/18 00:16:36;;;;;;;18.63;4.13;;;0.70;99.90;;;1.46;100.00;-19776.56;5110288;28;20724;-62
2022/01/18 00:19:08;;;;;;;15.83;4.60;;;0.70;99.90;;;1.57;100.00;-19780.16;5089804;28;20303;-62
2022/01/18 00:21:51;;;;;;;17.90;4.87;;;0.80;99.90;;;1.60;100.00;-19781.19;5111201;27;20218;-62
2022/01/18 00:24:19;;;;;;;15.93;3.77;;;0.90;99.90;;;1.62;100.00;-19782.06;5130699;27;20260;-62
2022/01/18 00:26:47;;;;;;;13.67;3.70;;;0.90;99.90;;;1.48;100.00;-19777.09;5133306;27;20301;-62
2022/01/18 00:29:20;;;;;;;23.10;4.67;;;0.90;99.90;;;1.49;100.00;-19777.59;5135438;27;20592;-62
2022/01/18 00:32:03;;;;;;;16.20;4.13;;;0.90;99.90;;;1.34;100.00;-19772.47;5133065;27;20611;-61
2022/01/18 00:34:35;;;;;;;14.33;4.03;;;0.80;99.90;;;1.24;100.00;-19769.06;5114643;28;20233;-62
2022/01/18 00:39:51;;;;;;;20.20;3.97;;;0.70;99.90;;;1.21;100.00;-19768.19;5114485;28;20397;-63
2022/01/18 00:42:19;;;;;;;20.20;4.63;;;0.70;99.90;;;1.22;100.00;-19768.53;5114576;28;20283;-62
2022/01/18 00:44:49;;;;;;;15.20;3.83;;;0.70;99.90;;;1.08;100.00;-19763.75;5114826;28;20211;-63
2022/01/18 00:47:17;;;;;;;19.47;3.37;;;0.60;99.90;;;1.23;100.00;-19768.88;5114696;28;20246;-62
2022/01/18 00:49:47;;;;;;;14.17;3.60;;;0.60;99.90;;;1.15;100.00;-19766.16;5114110;28;20306;-64
2022/01/18 00:52:18;;;;;;;16.47;4.47;;;0.60;99.90;;;1.05;100.00;-19762.56;5096961;28;20228;-63
2022/01/18 00:54:46;;;;;;;15.37;4.27;;;0.50;99.90;;;1.14;100.00;-19765.81;5094838;28;20330;-62
2022/01/18 00:57:15;;;;;;;13.50;3.30;;;0.50;99.90;;;1.05;100.00;-19762.56;5113917;27;20227;-63
2022/01/18 00:59:44;;;;;;;14.10;4.03;;;0.50;99.90;;;0.96;100.00;-19759.66;5114758;28;20246;-61
2022/01/18 01:02:19;;;;;;;16.93;3.93;;;0.50;99.90;;;0.91;100.00;-19757.94;5113277;28;20694;-63
2022/01/18 01:04:49;;;;;;;16.47;3.70;;;0.40;99.90;;;0.89;100.00;-19757.09;5114041;28;20236;-62
2022/01/18 01:07:20;;;;;;;18.90;4.50;;;0.40;99.90;;;0.86;100.00;-19756.06;5113898;28;20223;-62
2022/01/18 01:09:50;;;;;;;24.13;4.20;;;0.40;99.90;;;0.87;100.00;-19756.56;5114026;27;20306;-63
2022/01/18 01:12:21;;;;;;;16.30;4.43;;;0.40;99.90;;;0.93;100.00;-19758.63;5113639;28;20304;-62
2022/01/18 01:14:51;;;;;;;17.57;3.77;;;0.40;99.90;;;0.92;100.00;-19758.13;5113630;28;20231;-62
2022/01/18 01:17:34;;;;;;;16.70;3.60;;;0.40;99.90;;;0.88;100.00;-19756.91;5120005;27;20654;-62
2022/01/18 01:42:56;;;;;;;16.77;4.67;;;0.50;99.90;;;1.03;100.00;-19761.88;5071674;28;20219;-62
2022/01/18 01:45:27;;;;;;;20.20;4.07;;;0.50;99.90;;;1.02;100.00;-19761.69;5113400;28;20230;-62
2022/01/18 01:47:58;;;;;;;14.17;3.83;;;0.50;99.90;;;0.98;100.00;-19760.16;5113013;28;20188;-61
2022/01/18 01:50:40;;;;;;;17.23;4.70;;;0.50;99.90;;;1.02;100.00;-19761.53;5111541;28;20207;-62
2022/01/18 01:53:08;;;;;;;16.97;3.90;;;0.40;99.90;;;0.99;100.00;-19760.69;5092457;28;20224;-62
2022/01/18 01:55:38;;;;;;;17.07;3.90;;;0.40;99.90;;;0.91;100.00;-19757.94;5100639;28;20314;-62
2022/01/18 01:58:06;;;;;;;16.80;3.73;;;0.40;99.90;;;0.88;100.00;-19756.75;5112696;28;20269;-62
2022/01/18 02:00:44;;;;;;;15.43;3.87;;;0.40;99.90;;;0.82;100.00;-19754.88;5113211;27;20227;-62
2022/01/18 02:03:13;;;;;;;16.13;4.73;;;0.30;99.90;;;0.81;100.00;-19754.53;5112330;28;20230;-62
2022/01/18 02:05:43;;;;;;;15.03;3.47;;;0.30;99.90;;;0.80;100.00;-19754.19;5113236;28;20210;-61
2022/01/18 02:08:13;;;;;;;19.30;3.97;;;0.30;99.90;;;0.79;100.00;-19753.84;5112514;28;20645;-61
2022/01/18 02:10:43;;;;;;;14.00;3.10;;;0.30;99.90;;;0.79;100.00;-19753.66;5112374;28;20318;-61
2022/01/18 02:13:16;;;;;;;15.83;4.23;;;0.30;99.90;;;0.80;100.00;-19754.19;5115204;27;20265;-63
2022/01/18 02:16:09;;;;;;;19.23;4.00;;;0.20;99.90;;;0.91;100.00;-19757.94;5134392;27;20463;-61
2022/01/18 02:24:12;;;;;;;15.73;4.00;;;0.40;99.90;;;1.22;100.00;-19768.38;5132716;27;20334;-62
2022/01/18 02:26:41;;;;;;;18.17;4.03;;;0.50;99.90;;;1.32;100.00;-19771.63;5112838;28;20223;-62
2022/01/18 02:29:11;;;;;;;9.77;3.83;;;0.60;99.90;;;1.37;100.00;-19773.50;5112595;28;20314;-62
2022/01/18 02:31:40;;;;;;;9.83;3.77;;;0.70;99.90;;;1.41;100.00;-19774.88;5112184;28;20258;-62
2022/01/18 02:34:12;;;;;;;12.43;4.63;;;0.80;99.90;;;1.49;100.00;-19777.44;5112201;28;20223;-61
2022/01/18 02:36:42;;;;;;;14.80;3.73;;;0.80;99.90;;;1.52;100.00;-19778.63;5112409;28;20327;-62
2022/01/18 02:39:13;;;;;;;14.43;3.53;;;0.90;99.90;;;1.61;100.00;-19781.53;5112404;28;20231;-62
2022/01/18 02:41:41;;;;;;;17.70;4.03;;;0.90;99.90;;;1.74;100.00;-19785.97;5112519;28;20222;-62
2022/01/18 02:44:13;;;;;;;14.83;3.87;;;1.00;99.90;;;1.92;100.00;-19792.31;5112052;28;20310;-62
2022/01/18 02:46:44;;;;;;;13.57;3.67;;;1.10;99.90;;;2.00;100.00;-19795.03;5111750;28;20300;-62
2022/01/18 02:49:12;;;;;;;14.47;4.07;;;1.20;99.90;;;2.13;100.00;-19799.47;5110902;28;20241;-62
2022/01/18 02:51:41;;;;;;;12.30;3.30;;;1.30;99.90;;;2.06;100.00;-19796.91;5099646;28;20259;-62
2022/01/18 02:54:13;;;;;;;15.63;4.20;;;1.30;99.90;;;2.01;100.00;-19795.38;5091571;28;20255;-63
2022/01/18 02:56:47;;;;;;;12.67;3.50;;;1.30;99.90;;;2.01;100.00;-19795.38;5109076;28;20283;-62
2022/01/18 02:59:25;;;;;;;12.23;3.10;;;1.40;99.90;;;2.37;100.00;-19807.69;5112156;28;20229;-61
2022/01/18 03:04:40;;;;;;;14.43;2.87;;;1.50;99.90;;;2.15;100.00;-19800.16;5111586;28;20227;-62
2022/01/18 03:07:11;;;;;;;11.20;2.87;;;1.50;99.90;;;2.15;100.00;-19800.16;5111301;27;20334;-61
2022/01/18 03:09:40;;;;;;;15.27;3.30;;;1.50;99.90;;;2.20;100.00;-19801.88;5116255;27;20309;-61
2022/01/18 03:12:11;;;;;;;11.37;3.40;;;1.50;99.90;;;2.20;100.00;-19801.88;5131685;27;20986;-63
2022/01/18 03:14:40;;;;;;;7.73;2.70;;;1.50;99.90;;;2.20;100.00;-19801.88;5132607;27;20211;-61
2022/01/18 03:17:09;;;;;;;18.77;3.73;;;1.60;99.90;;;2.32;100.00;-19805.97;5131675;27;20218;-62
2022/01/18 03:19:37;;;;;;;14.87;3.57;;;1.60;99.90;;;2.43;100.00;-19809.75;5131780;27;20309;-61
2022/01/18 03:22:06;;;;;;;22.47;3.40;;;1.70;99.90;;;2.54;100.00;-19813.16;5117024;27;20254;-63
2022/01/18 03:24:57;;;;;;;11.53;3.80;;;1.70;99.90;;;2.58;100.00;-19814.69;5111194;28;20235;-63
2022/01/18 03:30:13;;;;;;;14.60;3.57;;;1.80;99.90;;;2.81;100.00;-19822.41;5110800;27;20250;-63
2022/01/18 03:32:41;;;;;;;11.43;3.17;;;1.90;99.90;;;2.79;100.00;-19821.88;5111051;28;20200;-62
2022/01/18 03:35:10;;;;;;;19.43;3.63;;;2.00;99.90;;;2.74;100.00;-19820.00;5110919;28;20268;-61
2022/01/18 03:37:42;;;;;;;11.93;3.00;;;2.00;99.90;;;2.70;100.00;-19818.63;5110906;28;20534;-63
2022/01/18 03:40:12;;;;;;;22.57;3.47;;;2.00;99.90;;;2.77;100.00;-19821.03;5110976;28;20216;-61
2022/01/18 03:42:42;;;;;;;15.73;3.40;;;2.00;99.90;;;2.91;100.00;-19825.81;5110649;28;20269;-62
2022/01/18 03:45:15;;;;;;;9.37;3.10;;;2.10;99.90;;;2.83;100.00;-19823.25;5110726;28;20251;-63
2022/01/18 03:47:44;;;;;;;8.37;2.67;;;2.10;99.90;;;2.78;100.00;-19821.53;5111087;28;20601;-62
2022/01/18 03:50:16;;;;;;;15.43;3.43;;;2.10;99.90;;;2.93;100.00;-19826.50;5110512;28;20228;-61
2022/01/18 03:52:48;;;;;;;12.47;3.00;;;2.10;99.90;;;2.96;100.00;-19827.69;5090552;28;20228;-62
2022/01/18 03:55:21;;;;;;;13.17;3.40;;;2.20;99.90;;;2.95;100.00;-19827.19;5095786;28;20368;-63
2022/01/18 03:57:50;;;;;;;17.83;3.37;;;2.20;99.90;;;2.99;100.00;-19828.53;5111001;28;20251;-62
2022/01/18 04:00:22;;;;;;;11.00;3.20;;;2.20;99.90;;;3.02;100.00;-19829.75;5110208;28;20221;-61
2022/01/18 04:02:52;;;;;;;12.53;2.73;;;2.20;99.90;;;3.13;100.00;-19833.50;5110140;28;20203;-62
2022/01/18 04:05:21;;;;;;;14.70;2.93;;;2.30;99.90;;;3.22;100.00;-19836.41;5111300;28;20216;-62
2022/01/18 04:07:51;;;;;;;15.17;4.00;;;2.30;99.90;;;3.30;100.00;-19839.16;5090321;28;20315;-62
2022/01/18 04:10:20;;;;;;;11.27;3.17;;;2.40;99.90;;;3.15;100.00;-19834.00;5089983;28;20230;-63
2022/01/18 04:12:49;;;;;;;12.87;3.40;;;2.40;99.90;;;3.08;100.00;-19831.63;5090289;28;20256;-63
2022/01/18 04:15:19;;;;;;;12.00;3.10;;;2.40;99.90;;;3.20;100.00;-19835.72;5090060;28;20252;-62
2022/01/18 04:26:53;;;;;;;12.53;3.17;;;2.40;99.90;;;3.47;100.00;-19845.13;5089909;28;20241;-62
2022/01/18 04:28:56;;;;;;;12.60;3.27;;;2.50;99.90;;;3.39;100.00;-19842.22;5089597;28;20693;-62
2022/01/18 04:31:26;;;;;;;14.50;3.83;;;2.60;99.90;;;3.30;100.00;-19839.31;5089887;28;20759;-62
2022/01/18 04:33:55;;;;;;;11.23;3.47;;;2.60;99.90;;;3.35;100.00;-19840.84;5089714;28;20316;-62
2022/01/18 04:36:23;;;;;;;11.30;3.90;;;2.60;99.90;;;3.50;100.00;-19846.16;5089935;28;20303;-63
2022/01/18 04:38:51;;;;;;;11.30;3.57;;;2.60;99.90;;;3.39;100.00;-19842.22;5089974;28;20553;-62
2022/01/18 04:41:26;;;;;;;15.27;3.47;;;2.70;99.90;;;3.37;100.00;-19841.72;5090313;28;20198;-62
2022/01/18 04:44:16;;;;;;;9.70;2.87;;;2.70;99.90;;;3.48;100.00;-19845.47;5089385;28;20263;-61
2022/01/18 04:49:30;;;;;;;11.57;3.10;;;2.70;99.90;;;3.36;100.00;-19841.19;5089392;28;20604;-62
2022/01/18 04:51:58;;;;;;;10.10;2.80;;;2.70;99.90;;;3.42;100.00;-19843.41;5089310;28;20698;-62
2022/01/18 04:54:29;;;;;;;10.00;2.80;;;2.70;99.90;;;3.56;100.00;-19848.03;5089544;28;20230;-62
2022/01/18 04:59:44;;;;;;;10.33;2.97;;;2.70;99.90;;;3.43;100.00;-19843.75;5109936;28;20213;-61
2022/01/18 05:02:12;;;;;;;10.47;3.53;;;2.70;99.90;;;3.38;100.00;-19841.88;5114614;28;20271;-61
2022/01/18 05:04:42;;;;;;;6.07;2.50;;;2.70;99.90;;;3.37;100.00;-19841.53;5130167;27;20309;-61
2022/01/18 05:07:13;;;;;;;13.33;2.80;;;2.70;99.90;;;3.36;100.00;-19841.38;5130308;27;20807;-61
2022/01/18 05:09:42;;;;;;;10.23;3.10;;;2.70;99.90;;;3.42;100.00;-19843.25;5130628;27;20285;-62
2022/01/18 05:12:18;;;;;;;10.53;2.70;;;2.70;99.90;;;3.41;100.00;-19843.09;5130732;27;20690;-61
2022/01/18 05:14:47;;;;;;;12.43;3.40;;;2.70;99.90;;;3.36;100.00;-19841.38;5118475;27;20199;-61
2022/01/18 05:17:35;;;;;;;16.30;3.57;;;2.70;99.90;;;3.37;100.00;-19841.72;5114015;28;20235;-60
2022/01/18 05:20:39;;;;;;;14.87;3.30;;;2.70;99.90;;;3.56;100.00;-19848.03;5113678;28;20657;-61
2022/01/18 05:23:00;;;;;;;10.60;3.27;;;2.70;99.90;;;3.50;100.00;-19846.00;5114061;28;20262;-62
2022/01/18 05:25:29;;;;;;;10.17;3.47;;;2.70;99.90;;;3.48;100.00;-19845.31;5113616;27;20224;-61
2022/01/18 05:28:00;;;;;;;10.80;2.90;;;2.70;99.90;;;3.49;100.00;-19845.81;5113688;28;20249;-61
2022/01/18 05:30:29;;;;;;;13.57;2.80;;;2.70;99.90;;;3.46;100.00;-19844.78;5113854;28;20312;-61
2022/01/18 05:32:59;;;;;;;14.73;3.93;;;2.80;99.90;;;3.60;100.00;-19849.56;5113350;28;20216;-61
2022/01/18 05:35:28;;;;;;;19.23;5.90;;;2.80;99.90;;;3.52;100.00;-19846.66;5114023;28;20217;-61
2022/01/18 05:37:57;;;;;;;11.70;3.57;;;2.80;99.90;;;3.52;100.00;-19846.84;5113299;27;20256;-61
2022/01/18 05:40:27;;;;;;;10.33;3.83;;;2.80;99.90;;;3.45;100.00;-19844.44;5113068;28;20259;-61
2022/01/18 05:42:56;;;;;;;18.73;5.20;;;2.80;99.90;;;3.43;100.00;-19843.75;5112772;27;20228;-62
2022/01/18 05:45:26;;;;;;;12.27;4.13;;;2.80;99.90;;;3.38;100.00;-19842.06;5112949;28;20588;-61
2022/01/18 05:47:54;;;;;;;14.07;4.10;;;2.80;99.90;;;3.43;100.00;-19843.59;5112967;28;20217;-62
2022/01/18 05:50:22;;;;;;;12.67;3.50;;;2.80;99.90;;;3.47;100.00;-19845.13;5112024;28;20295;-61
2022/01/18 05:52:50;;;;;;;14.60;3.77;;;2.80;99.90;;;3.45;100.00;-19844.28;5092318;28;20264;-60
2022/01/18 05:55:18;;;;;;;14.70;3.90;;;2.80;99.90;;;3.56;100.00;-19848.03;5102530;28;20221;-60
2022/01/18 05:57:47;;;;;;;12.30;3.83;;;2.80;99.90;;;3.50;100.00;-19846.00;5112803;28;20239;-61
2022/01/18 06:00:22;;;;;;;18.53;3.80;;;2.80;99.90;;;3.60;100.00;-19849.56;5112612;28;20315;-61
2022/01/18 06:03:02;;;;;;;11.47;3.60;;;2.80;99.90;;;3.42;100.00;-19843.41;5113455;28;20232;-61
2022/01/18 06:08:17;;;;;;;16.90;4.07;;;2.70;99.90;;;3.52;100.00;-19846.66;5113672;28;20208;-60
2022/01/18 06:10:45;;;;;;;11.10;3.27;;;2.80;99.90;;;3.58;100.00;-19848.91;5113187;27;20228;-61
2022/01/18 06:13:14;;;;;;;15.53;4.70;;;2.80;99.90;;;3.52;100.00;-19846.84;5113339;28;20230;-61
2022/01/18 06:15:42;;;;;;;15.80;3.80;;;2.80;99.90;;;3.54;100.00;-19847.53;5113352;28;20662;-62
2022/01/18 06:18:14;;;;;;;14.73;3.70;;;2.80;99.90;;;3.49;100.00;-19845.63;5113313;27;20655;-61
2022/01/18 06:20:43;;;;;;;15.80;4.00;;;2.80;99.90;;;3.50;100.00;-19846.00;5114062;28;20269;-62
2022/01/18 06:23:13;;;;;;;14.20;3.70;;;2.80;99.90;;;3.46;100.00;-19844.78;5113480;28;20227;-62
2022/01/18 06:25:42;;;;;;;12.97;3.63;;;2.80;99.90;;;3.51;100.00;-19846.31;5112655;28;20226;-63
2022/01/18 06:28:11;;;;;;;14.53;4.00;;;2.80;99.90;;;3.48;100.00;-19845.47;5113500;28;20225;-61
2022/01/18 06:30:39;;;;;;;15.30;3.60;;;2.80;99.90;;;3.53;100.00;-19847.00;5113129;28;20310;-61
2022/01/18 06:33:07;;;;;;;9.80;2.90;;;2.80;99.90;;;3.54;100.00;-19847.34;5112915;28;20284;-61
2022/01/18 06:35:37;;;;;;;15.97;3.90;;;2.80;99.90;;;3.59;100.00;-19849.22;5113961;28;20207;-62
2022/01/18 06:38:05;;;;;;;15.50;3.83;;;2.80;99.90;;;3.59;100.00;-19849.06;5112843;27;20340;-62
2022/01/18 06:40:33;;;;;;;8.07;3.20;;;2.80;99.90;;;3.49;100.00;-19845.81;5112826;28;20222;-64
2022/01/18 06:43:03;;;;;;;9.10;2.90;;;2.80;99.90;;;3.57;100.00;-19848.38;5112654;28;20232;-61
2022/01/18 06:45:34;;;;;;;9.93;3.67;;;2.80;99.90;;;3.55;100.00;-19847.69;5112851;28;20315;-61
2022/01/18 06:48:02;;;;;;;15.20;3.47;;;2.80;99.90;;;3.55;100.00;-19847.88;5112456;28;20297;-61
2022/01/18 06:50:30;;;;;;;14.83;3.93;;;2.80;99.90;;;3.59;100.00;-19849.22;5111905;28;20712;-60
2022/01/18 06:53:00;;;;;;;11.50;2.90;;;2.90;99.90;;;3.57;100.00;-19848.38;5112340;28;20387;-61
2022/01/18 06:55:28;;;;;;;14.33;3.33;;;2.90;99.90;;;3.61;100.00;-19849.75;5117161;27;20219;-60
2022/01/18 06:57:57;;;;;;;16.13;3.70;;;2.90;99.90;;;3.67;100.00;-19851.78;5112322;28;20315;-60
2022/01/18 07:00:25;;;;;;;13.43;3.87;;;2.80;99.90;;;3.63;100.00;-19850.44;5112311;28;20306;-60
2022/01/18 07:02:53;;;;;;;13.30;3.57;;;2.90;99.90;;;3.61;100.00;-19849.75;5111938;27;20672;-60
2022/01/18 07:05:21;;;;;;;15.23;3.37;;;2.90;99.90;;;4.05;100.00;-19864.78;5112736;28;20237;-60
2022/01/18 07:07:49;;;;;;;10.37;3.20;;;3.00;99.90;;;3.95;100.00;-19861.38;5112155;28;20241;-61
2022/01/18 07:10:19;;;;;;;12.80;3.30;;;3.10;99.90;;;3.76;100.00;-19854.88;5112078;28;20645;-60
2022/01/18 07:12:48;;;;;;;13.80;3.03;;;3.00;99.90;;;3.82;100.00;-19856.94;5111771;28;20230;-60
2022/01/18 07:15:16;;;;;;;11.63;2.77;;;3.10;99.90;;;3.75;100.00;-19854.69;5112008;27;20765;-62
2022/01/18 07:17:44;;;;;;;15.13;3.70;;;3.10;99.90;;;3.82;100.00;-19856.75;5112308;28;20662;-61
2022/01/18 07:20:14;;;;;;;10.43;3.30;;;3.00;99.90;;;3.80;100.00;-19856.06;5112146;28;20307;-60
2022/01/18 07:22:43;;;;;;;14.30;3.40;;;3.00;99.90;;;3.73;100.00;-19854.03;5111845;28;20274;-60
2022/01/18 07:25:13;;;;;;;10.93;3.53;;;3.00;99.90;;;3.66;100.00;-19851.63;5112020;28;20229;-60
2022/01/18 07:27:42;;;;;;;14.20;2.77;;;3.00;99.90;;;3.67;100.00;-19851.78;5111550;28;20254;-61
2022/01/18 07:30:12;;;;;;;14.33;3.07;;;3.00;99.90;;;3.80;100.00;-19856.25;5112022;28;20313;-61
2022/01/18 07:32:40;;;;;;;12.50;3.80;;;3.00;99.90;;;3.77;100.00;-19855.22;5112455;28;20262;-61
2022/01/18 07:35:11;;;;;;;10.17;3.63;;;3.00;99.90;;;3.67;100.00;-19851.97;5111664;28;20252;-62
2022/01/18 07:37:40;;;;;;;10.60;3.00;;;3.00;99.90;;;3.66;100.00;-19851.44;5111460;28;20252;-59
2022/01/18 07:40:09;;;;;;;10.70;3.60;;;3.00;99.90;;;3.64;100.00;-19850.94;5111394;28;20697;-63
2022/01/18 07:42:37;;;;;;;12.27;3.80;;;3.00;99.90;;;3.76;100.00;-19854.88;5107788;27;20310;-63
2022/01/18 07:45:09;;;;;;;14.27;3.33;;;3.00;99.90;;;3.75;100.00;-19854.69;5108455;28;20321;-61
2022/01/18 07:47:37;;;;;;;8.90;2.97;;;3.00;99.90;;;3.73;100.00;-19853.84;5108640;28;20206;-61
2022/01/18 07:50:06;;;;;;;17.23;3.87;;;3.00;99.90;;;3.80;100.00;-19856.25;5108399;28;20313;-61
2022/01/18 07:52:35;;;;;;;11.43;4.27;;;3.10;99.90;;;3.82;100.00;-19856.75;5125861;27;20719;-60
2022/01/18 07:55:05;;;;;;;6.60;3.20;;;3.10;99.90;;;3.75;100.00;-19854.69;5125234;27;20251;-60
2022/01/18 07:57:34;;;;;;;14.63;4.20;;;3.10;99.90;;;3.86;100.00;-19858.13;5108040;28;20237;-60
2022/01/18 08:00:02;;;;;;;11.73;4.77;;;3.10;99.90;;;3.88;100.00;-19858.81;5108499;28;20210;-59
2022/01/18 08:02:36;;;;;;;11.90;3.87;;;3.10;99.90;;;3.91;100.00;-19859.84;5108633;28;20202;-60
2022/01/18 08:05:06;;;;;;;12.77;4.07;;;3.10;99.90;;;3.88;100.00;-19858.81;5108142;28;20705;-60
2022/01/18 08:07:34;;;;;;;13.60;4.20;;;3.10;99.90;;;3.90;100.00;-19859.50;5107937;28;20258;-60
2022/01/18 08:10:05;;;;;;;12.80;4.50;;;3.10;99.90;;;3.92;100.00;-19860.16;5108348;28;20326;-59
2022/01/18 08:12:33;;;;;;;14.60;4.83;;;3.20;99.90;;;4.00;100.00;-19862.91;5108004;28;20305;-60
2022/01/18 08:15:11;;;;;;;13.70;4.50;;;3.20;99.90;;;3.97;100.00;-19862.06;5108188;28;20342;-61
2022/01/18 08:17:54;;;;;;;11.07;5.20;;;3.30;99.90;;;4.30;100.00;-19873.16;5107775;28;20573;-61
2022/01/18 08:20:23;;;;;;;12.77;5.07;;;3.30;99.90;;;4.16;100.00;-19868.38;5108916;28;20187;-62
2022/01/18 08:22:51;;;;;;;11.33;5.30;;;3.40;99.90;;;4.16;100.00;-19868.38;5108044;28;20222;-62
2022/01/18 08:25:19;;;;;;;14.27;5.50;;;3.40;99.90;;;4.27;100.00;-19872.13;5107902;28;20312;-57
2022/01/18 08:27:47;;;;;;;14.20;4.70;;;3.40;99.90;;;4.23;100.00;-19870.78;5107454;28;20305;-56
2022/01/18 08:30:18;;;;;;;12.50;4.97;;;3.40;99.90;;;4.23;100.00;-19870.94;5108079;28;20380;-61
2022/01/18 08:32:48;;;;;;;13.43;5.63;;;3.40;99.90;;;4.24;100.00;-19871.13;5108055;28;20226;-60
2022/01/18 08:35:18;;;;;;;11.77;5.37;;;3.40;99.90;;;4.26;100.00;-19871.78;5108005;28;20234;-59
2022/01/18 08:37:46;;;;;;;10.50;5.70;;;3.50;99.90;;;4.42;100.00;-19877.25;5107871;28;20280;-60
2022/01/18 08:40:15;;;;;;;10.07;5.90;;;3.50;99.90;;;4.42;100.00;-19877.44;5107296;28;20317;-60
2022/01/18 08:42:44;;;;;;;13.13;6.00;;;3.60;99.90;;;4.46;100.00;-19878.81;5107027;28;20284;-60
2022/01/18 08:45:12;;;;;;;14.87;5.97;;;3.60;99.90;;;4.56;100.00;-19882.22;5106890;28;20652;-61
2022/01/18 08:47:47;;;;;;;13.07;5.93;;;3.70;99.90;;;4.60;100.00;-19883.59;5119311;27;20605;-61
2022/01/18 08:50:18;;;;;;;12.73;5.70;;;3.70;99.90;;;4.69;100.00;-19886.66;5131967;27;20555;-61
2022/01/18 08:52:51;;;;;;;11.53;5.80;;;3.80;99.90;;;4.73;100.00;-19887.88;5111711;28;20796;-59
2022/01/18 08:55:19;;;;;;;14.37;5.73;;;3.90;99.90;;;4.73;100.00;-19888.03;5111737;28;20228;-63
2022/01/18 08:57:48;;;;;;;12.53;5.53;;;3.90;99.90;;;4.86;100.00;-19892.47;5111394;27;20809;-64
2022/01/18 09:00:19;;;;;;;11.37;5.43;;;4.00;99.90;;;4.96;100.00;-19895.72;5111026;28;20237;-63
2022/01/18 09:02:48;;;;;;;9.90;5.23;;;4.10;99.90;;;5.10;100.00;-19900.34;5112165;28;20265;-60
2022/01/18 09:05:21;;;;;;;11.70;4.93;;;4.10;99.90;;;5.16;100.00;-19902.56;5111614;28;20244;-60
2022/01/18 09:07:50;;;;;;;12.87;4.80;;;4.20;99.90;;;5.29;100.00;-19906.84;5111581;28;20313;-61
2022/01/18 09:10:19;;;;;;;14.80;4.97;;;4.30;99.90;;;5.22;100.00;-19904.44;5111128;28;20260;-60
2022/01/18 09:12:47;;;;;;;10.80;4.93;;;4.30;99.90;;;5.23;100.00;-19904.94;5111015;28;20314;-61
2022/01/18 09:15:15;;;;;;;10.13;4.97;;;4.30;99.90;;;5.33;100.00;-19908.38;5111203;27;20261;-55
2022/01/18 09:17:43;;;;;;;11.17;4.30;;;4.30;99.90;;;5.34;100.00;-19908.53;5111677;28;20286;-51
2022/01/18 09:20:14;;;;;;;11.50;3.67;;;4.40;99.90;;;5.37;100.00;-19909.75;5110759;28;20317;-60
2022/01/18 09:22:48;;;;;;;10.63;3.60;;;4.40;99.90;;;5.29;100.00;-19907.00;5110989;27;20705;-52
2022/01/18 09:25:21;;;;;;;7.47;3.73;;;4.40;99.90;;;5.32;100.00;-19907.84;5110827;28;20227;-55
2022/01/18 09:27:50;;;;;;;9.03;4.20;;;4.40;99.90;;;5.33;100.00;-19908.19;5110795;28;20241;-62
2022/01/18 09:30:19;;;;;;;11.90;3.77;;;4.40;99.90;;;5.35;100.00;-19909.06;5110774;27;20241;-61
2022/01/18 09:32:49;;;;;;;10.70;4.00;;;4.50;99.90;;;5.37;100.00;-19909.56;5111349;28;20293;-61
2022/01/18 09:35:18;;;;;;;11.20;3.93;;;4.40;99.90;;;5.41;100.00;-19910.94;5110743;28;20313;-61
2022/01/18 09:37:48;;;;;;;10.53;3.73;;;4.40;99.90;;;5.38;100.00;-19910.06;5110744;27;20269;-52
2022/01/18 09:40:20;;;;;;;9.17;4.07;;;4.40;99.90;;;5.38;100.00;-19910.06;5110692;28;20706;-52
2022/01/18 09:42:52;;;;;;;9.90;4.23;;;4.50;99.90;;;5.35;100.00;-19908.88;5110271;28;20575;-66
2022/01/18 09:45:23;;;;;;;11.73;4.20;;;4.50;99.90;;;5.41;100.00;-19911.09;5110661;28;20223;-60
2022/01/18 09:47:54;;;;;;;8.07;3.90;;;4.50;99.90;;;5.48;100.00;-19913.34;5110485;28;20191;-61
2022/01/18 09:50:29;;;;;;;14.80;4.93;;;4.50;99.90;;;5.53;100.00;-19915.22;5109667;28;20187;-64
2022/01/18 09:52:59;;;;;;;9.33;3.80;;;4.50;99.90;;;5.37;100.00;-19909.75;5090287;28;20288;-64
2022/01/18 09:55:31;;;;;;;8.93;4.20;;;4.50;99.90;;;5.43;100.00;-19911.63;5101110;28;20246;-61
2022/01/18 09:58:03;;;;;;;10.83;3.73;;;4.50;99.90;;;5.32;100.00;-19907.84;5110188;28;20233;-60
2022/01/18 10:00:34;;;;;;;7.23;4.40;;;4.50;99.90;;;5.36;100.00;-19909.22;5109606;28;21508;-59
2022/01/18 10:03:02;;;;;;;10.23;3.90;;;4.40;99.90;;;5.37;100.00;-19909.75;5110152;28;20199;-61
2022/01/18 10:05:34;;;;;;;8.37;3.77;;;4.50;99.90;;;5.46;100.00;-19912.66;5110552;28;20648;-59
2022/01/18 10:08:07;;;;;;;8.50;4.07;;;4.50;99.90;;;5.55;100.00;-19915.72;5110228;28;20255;-62
2022/01/18 10:10:40;;;;;;;8.20;3.63;;;4.60;99.90;;;5.74;100.00;-19922.38;5109719;28;20254;-58
2022/01/18 10:13:16;;;;;;;7.20;3.83;;;4.70;99.90;;;5.79;100.00;-19923.94;5110146;28;20258;-58
2022/01/18 10:16:03;;;;;;;11.30;4.30;;;4.80;99.90;;;5.81;100.00;-19924.59;5109551;28;20235;-61
2022/01/18 10:18:52;;;;;;;7.80;4.00;;;4.80;99.90;;;5.89;100.00;-19927.53;5110131;28;20286;-60
2022/01/18 10:21:30;;;;;;;6.93;3.40;;;4.80;99.90;;;5.94;100.00;-19929.06;5110123;27;20298;-59
2022/01/18 10:24:16;;;;;;;12.23;4.80;;;4.90;99.90;;;6.05;100.00;-19932.97;5109939;28;20672;-63
2022/01/18 10:26:48;;;;;;;10.93;4.53;;;5.00;99.90;;;6.14;100.00;-19935.88;5110440;28;20215;-64
2022/01/18 10:29:19;;;;;;;11.43;4.40;;;5.10;99.90;;;6.29;100.00;-19941.03;5109203;28;20250;-63
2022/01/18 10:31:57;;;;;;;6.00;3.73;;;5.20;99.90;;;6.27;100.00;-19940.34;5108966;28;20255;-64
2022/01/18 10:34:41;;;;;;;8.90;4.27;;;5.20;99.90;;;6.17;100.00;-19937.09;5108780;28;20313;-63
2022/01/18 10:37:13;;;;;;;9.23;4.10;;;5.20;99.90;;;6.12;100.00;-19935.22;5109356;28;20246;-63
2022/01/18 10:39:47;;;;;;;12.20;4.50;;;5.20;99.90;;;6.06;100.00;-19933.16;5114277;27;20248;-60
2022/01/18 10:42:21;;;;;;;8.43;4.27;;;5.20;99.90;;;6.02;100.00;-19931.78;5130353;27;20307;-60
2022/01/18 10:45:01;;;;;;;9.30;3.77;;;5.10;99.90;;;6.02;100.00;-19931.78;5130223;27;20843;-61
2022/01/18 10:47:29;;;;;;;9.10;4.10;;;5.10;99.90;;;6.19;100.00;-19937.59;5130764;27;20186;-57
2022/01/18 10:50:06;;;;;;;8.57;4.60;;;5.10;99.90;;;6.06;100.00;-19933.16;5129972;27;20258;-55
2022/01/18 10:52:34;;;;;;;12.27;4.67;;;5.10;99.90;;;6.05;100.00;-19932.81;5109774;27;20246;-53
2022/01/18 10:55:05;;;;;;;11.70;4.30;;;5.10;99.90;;;6.09;100.00;-19934.19;5108963;28;20774;-54
2022/01/18 10:57:38;;;;;;;8.85;4.75;;;5.10;99.90;;;6.22;100.00;-19938.63;5128615;27;20460;-62
2022/01/18 11:00:11;;;;;;;12.07;4.50;;;5.20;99.90;;;6.06;100.00;-19933.16;5133172;27;20195;-61
2022/01/18 11:02:42;;;;;;;10.00;4.50;;;5.20;99.90;;;6.07;100.00;-19933.66;5134058;27;20274;-62
2022/01/18 11:05:17;;;;;;;8.67;4.73;;;5.20;99.90;;;6.09;100.00;-19934.19;5133025;27;20223;-62
2022/01/18 11:07:48;;;;;;;7.87;4.40;;;5.20;99.90;;;6.12;100.00;-19935.22;5133050;27;20222;-62
2022/01/18 11:10:21;;;;;;;12.67;5.00;;;5.20;99.90;;;6.06;100.00;-19933.16;5132190;27;20321;-62
2022/01/18 11:12:56;;;;;;;9.53;4.57;;;5.20;99.90;;;6.08;100.00;-19934.00;5132941;27;20254;-62
2022/01/18 11:15:27;;;;;;;10.90;4.10;;;5.20;99.90;;;6.07;100.00;-19933.66;5132577;27;20230;-62
2022/01/18 11:18:01;;;;;;;7.67;4.20;;;5.10;99.90;;;6.05;100.00;-19932.97;5132681;27;20183;-62
2022/01/18 11:20:33;;;;;;;6.10;3.33;;;5.10;99.90;;;6.06;100.00;-19933.16;5121686;27;20718;-62
2022/01/18 11:23:04;;;;;;;6.67;4.10;;;5.10;99.90;;;6.03;100.00;-19932.13;5112389;28;20254;-60